createdAt,value
2018-02-17T00:01:08.246Z,102048.07
2018-02-17T00:03:34.186Z,102050.04
2018-02-17T00:06:00.198Z,102040.41
2018-02-17T00:08:26.140Z,102024.59
2018-02-17T00:10:52.098Z,102026.64
2018-02-17T00:13:18.114Z,102029.54
2018-02-17T00:15:44.114Z,102024.65
2018-02-17T00:18:10.041Z,102015.33
2018-02-17T00:20:35.998Z,102014.89
2018-02-17T00:23:01.979Z,102005.47
2018-02-17T00:25:27.953Z,102011.58
2018-02-17T00:27:53.903Z,102011.58
2018-02-17T00:30:19.901Z,102008.38
2018-02-17T00:32:45.880Z,102004.05
2018-02-17T00:35:11.861Z,102008.64
2018-02-17T00:37:37.845Z,102006.87
2018-02-17T00:40:03.786Z,101995.98
2018-02-17T00:42:29.741Z,101981.34
2018-02-17T00:44:55.697Z,101983.07
2018-02-17T00:47:21.651Z,101973.66
2018-02-17T00:49:47.625Z,101967.33
2018-02-17T00:52:13.570Z,101959.85
2018-02-17T00:54:39.522Z,101973.95
2018-02-17T00:57:05.471Z,101976.41
2018-02-17T00:59:31.440Z,101975.50
2018-02-17T01:01:57.409Z,101966.33
2018-02-17T01:04:23.351Z,101956.38
2018-02-17T01:06:49.315Z,101959.13
2018-02-17T01:09:15.274Z,101958.02
2018-02-17T01:11:41.254Z,101946.06
2018-02-17T01:14:07.198Z,101941.80
2018-02-17T01:16:33.158Z,101939.38
2018-02-17T01:18:59.098Z,101931.78
2018-02-17T01:21:25.070Z,101925.16
2018-02-17T01:23:51.014Z,101924.11
2018-02-17T01:26:16.959Z,101922.36
2018-02-17T01:28:42.897Z,101922.98
2018-02-17T01:31:08.858Z,101920.78
2018-02-17T01:33:34.797Z,101920.80
2018-02-17T01:36:00.750Z,101916.52
2018-02-17T01:38:26.804Z,101913.05
2018-02-17T01:40:52.749Z,101910.27
2018-02-17T01:43:18.686Z,101912.16
2018-02-17T01:45:44.681Z,101907.31
2018-02-17T01:48:10.631Z,101913.14
2018-02-17T01:50:36.596Z,101912.16
2018-02-17T01:53:02.630Z,101910.91
2018-02-17T01:55:28.586Z,101910.73
2018-02-17T01:57:54.542Z,101916.10
2018-02-17T02:00:20.548Z,101925.98
2018-02-17T02:02:46.486Z,101924.73
2018-02-17T02:05:12.434Z,101919.95
2018-02-17T02:07:38.402Z,101921.10
2018-02-17T02:10:04.337Z,101920.75
2018-02-17T02:12:30.305Z,101920.30
2018-02-17T02:14:56.436Z,101924.73
2018-02-17T02:17:22.406Z,101921.01
2018-02-17T02:19:48.352Z,101916.16
2018-02-17T02:22:14.313Z,101909.35
2018-02-17T02:24:40.253Z,101900.84
2018-02-17T02:27:06.197Z,101903.42
2018-02-17T02:29:32.162Z,101914.73
2018-02-17T02:31:58.159Z,101919.37
2018-02-17T02:34:24.139Z,101913.78
2018-02-17T02:36:50.090Z,101909.56
2018-02-17T02:39:16.026Z,101905.17
2018-02-17T02:41:41.992Z,101901.89
2018-02-17T02:44:07.943Z,101891.69
2018-02-17T02:46:33.898Z,101897.56
2018-02-17T02:48:59.863Z,101895.41
2018-02-17T02:51:25.834Z,101898.44
2018-02-17T02:53:51.907Z,101887.83
2018-02-17T02:56:17.860Z,101889.05
2018-02-17T02:58:43.827Z,101885.78
2018-02-17T03:01:09.764Z,101880.41
2018-02-17T03:03:35.760Z,101876.82
2018-02-17T03:06:01.702Z,101870.25
2018-02-17T03:08:27.677Z,101866.39
2018-02-17T03:10:53.632Z,101866.00
2018-02-17T03:13:19.598Z,101863.30
2018-02-17T03:15:45.534Z,101853.77
2018-02-17T03:18:11.494Z,101852.09
2018-02-17T03:20:37.446Z,101851.14
2018-02-17T03:23:03.398Z,101847.25
2018-02-17T03:25:29.338Z,101844.14
2018-02-17T03:27:55.307Z,101842.92
2018-02-17T03:30:21.251Z,101836.46
2018-02-17T03:32:47.197Z,101837.23
2018-02-17T03:35:13.137Z,101836.95
2018-02-17T03:37:39.084Z,101833.34
2018-02-17T03:40:05.021Z,101828.02
2018-02-17T03:42:30.967Z,101824.14
2018-02-17T03:44:56.921Z,101827.16
2018-02-17T03:47:22.862Z,101835.47
2018-02-17T03:49:48.806Z,101844.00
2018-02-17T03:52:14.770Z,101836.30
2018-02-17T03:54:40.711Z,101826.16
2018-02-17T03:57:06.686Z,101815.08
2018-02-17T03:59:32.633Z,101815.63
2018-02-17T04:01:58.705Z,101811.97
2018-02-17T04:04:24.658Z,101814.73
2018-02-17T04:06:50.590Z,101812.19
2018-02-17T04:09:16.558Z,101799.84
2018-02-17T04:11:42.550Z,101802.08
2018-02-17T04:14:08.509Z,101803.78
2018-02-17T04:16:34.485Z,101809.66
2018-02-17T04:19:00.446Z,101806.41
2018-02-17T04:21:26.388Z,101800.29
2018-02-17T04:23:52.367Z,101803.05
2018-02-17T04:26:18.325Z,101800.19
2018-02-17T04:28:44.286Z,101799.16
2018-02-17T04:31:10.232Z,101803.81
2018-02-17T04:33:36.183Z,101797.53
2018-02-17T04:36:02.146Z,101793.42
2018-02-17T04:38:28.091Z,101795.77
2018-02-17T04:40:54.058Z,101791.94
2018-02-17T04:43:20.000Z,101783.98
2018-02-17T04:45:46.014Z,101776.08
2018-02-17T04:48:11.970Z,101769.16
2018-02-17T04:50:37.909Z,101760.27
2018-02-17T04:53:03.850Z,101766.17
2018-02-17T04:55:29.812Z,101765.98
2018-02-17T04:57:55.782Z,101758.02
2018-02-17T05:00:21.758Z,101755.52
2018-02-17T05:02:47.713Z,101749.25
2018-02-17T05:05:13.655Z,101750.25
2018-02-17T05:07:39.602Z,101747.75
2018-02-17T05:10:05.553Z,101743.90
2018-02-17T05:12:31.537Z,101742.84
2018-02-17T05:14:57.499Z,101747.78
2018-02-17T05:17:23.447Z,101744.15
2018-02-17T05:19:49.427Z,101745.41
2018-02-17T05:22:15.353Z,101745.98
2018-02-17T05:24:41.324Z,101743.45
2018-02-17T05:27:07.289Z,101737.89
2018-02-17T05:29:33.333Z,101734.59
2018-02-17T05:31:59.282Z,101736.10
2018-02-17T05:34:25.219Z,101736.39
2018-02-17T05:36:51.158Z,101733.21
2018-02-17T05:39:17.132Z,101732.31
2018-02-17T05:41:43.086Z,101732.22
2018-02-17T05:44:09.031Z,101729.97
2018-02-17T05:46:34.981Z,101727.75
2018-02-17T05:49:00.929Z,101728.91
2018-02-17T05:51:26.878Z,101729.03
2018-02-17T05:53:52.830Z,101729.58
2018-02-17T05:56:18.765Z,101722.84
2018-02-17T05:58:44.729Z,101714.98
2018-02-17T06:01:10.674Z,101714.81
2018-02-17T06:03:36.649Z,101714.05
2018-02-17T06:06:02.598Z,101718.61
2018-02-17T06:08:28.550Z,101715.30
2018-02-17T06:10:54.536Z,101713.62
2018-02-17T06:13:20.500Z,101715.00
2018-02-17T06:15:46.552Z,101709.27
2018-02-17T06:18:12.495Z,101702.42
2018-02-17T06:20:38.471Z,101697.58
2018-02-17T06:23:04.426Z,101693.36
2018-02-17T06:25:30.411Z,101690.60
2018-02-17T06:27:56.376Z,101686.48
2018-02-17T06:30:22.338Z,101683.75
2018-02-17T06:32:48.286Z,101676.92
2018-02-17T06:35:14.253Z,101677.06
2018-02-17T06:37:40.198Z,101668.18
2018-02-17T06:40:06.154Z,101671.13
2018-02-17T06:42:32.098Z,101674.74
2018-02-17T06:44:58.059Z,101670.47
2018-02-17T06:47:24.031Z,101664.37
2018-02-17T06:49:49.993Z,101655.50
2018-02-17T06:52:15.953Z,101655.39
2018-02-17T06:54:41.979Z,101647.25
2018-02-17T06:57:07.944Z,101640.07
2018-02-17T06:59:33.886Z,101638.82
2018-02-17T07:01:59.844Z,101639.47
2018-02-17T07:04:25.804Z,101645.58
2018-02-17T07:06:51.739Z,101648.22
2018-02-17T07:09:17.693Z,101650.64
2018-02-17T07:11:43.636Z,101653.97
2018-02-17T07:14:09.577Z,101646.30
2018-02-17T07:16:35.546Z,101646.86
2018-02-17T07:19:01.488Z,101649.32
2018-02-17T07:21:27.482Z,101639.85
2018-02-17T07:23:53.450Z,101642.91
2018-02-17T07:26:19.412Z,101646.68
2018-02-17T07:28:45.366Z,101645.42
2018-02-17T07:31:11.319Z,101648.11
2018-02-17T07:33:37.290Z,101642.34
2018-02-17T07:36:03.222Z,101643.91
2018-02-17T07:38:29.187Z,101645.29
2018-02-17T07:40:55.197Z,101642.00
2018-02-17T07:43:21.237Z,101650.87
2018-02-17T07:45:47.329Z,101655.29
2018-02-17T07:48:13.314Z,101660.73
2018-02-17T07:50:39.302Z,101659.59
2018-02-17T07:53:05.331Z,101658.17
2018-02-17T07:55:31.409Z,101656.33
2018-02-17T07:57:57.423Z,101659.59
2018-02-17T08:00:23.381Z,101658.23
2018-02-17T08:02:49.337Z,101654.67
2018-02-17T08:05:15.312Z,101658.10
2018-02-17T08:07:41.274Z,101659.59
2018-02-17T08:10:07.205Z,101666.14
2018-02-17T08:12:33.165Z,101664.19
2018-02-17T08:14:59.202Z,101661.84
2018-02-17T08:17:25.163Z,101668.53
2018-02-17T08:19:51.131Z,101662.26
2018-02-17T08:22:17.183Z,101663.44
2018-02-17T08:24:43.119Z,101665.73
2018-02-17T08:27:09.081Z,101663.30
2018-02-17T08:29:35.058Z,101658.48
2018-02-17T08:32:01.023Z,101650.28
2018-02-17T08:34:26.970Z,101655.86
2018-02-17T08:36:52.983Z,101653.09
2018-02-17T08:39:18.947Z,101659.38
2018-02-17T08:41:44.927Z,101657.23
2018-02-17T08:44:10.977Z,101650.85
2018-02-17T08:46:36.932Z,101651.47
2018-02-17T08:49:02.870Z,101653.91
2018-02-17T08:51:28.826Z,101654.59
2018-02-17T08:53:54.798Z,101646.00
2018-02-17T08:56:20.754Z,101642.28
2018-02-17T08:58:46.765Z,101645.41
2018-02-17T09:01:12.706Z,101646.80
2018-02-17T09:03:38.667Z,101640.73
2018-02-17T09:06:04.675Z,101640.77
2018-02-17T09:08:30.644Z,101639.34
2018-02-17T09:10:56.587Z,101643.42
2018-02-17T09:13:22.588Z,101640.37
2018-02-17T09:15:48.546Z,101635.70
2018-02-17T09:18:14.490Z,101637.57
2018-02-17T09:20:40.503Z,101629.70
2018-02-17T09:23:06.505Z,101638.16
2018-02-17T09:25:32.477Z,101637.34
2018-02-17T09:27:58.422Z,101639.25
2018-02-17T09:30:24.394Z,101637.76
2018-02-17T09:32:50.347Z,101643.38
2018-02-17T09:35:16.317Z,101649.14
2018-02-17T09:37:42.297Z,101648.66
2018-02-17T09:40:08.267Z,101644.95
2018-02-17T09:42:34.221Z,101646.96
2018-02-17T09:45:00.167Z,101651.05
2018-02-17T09:47:26.138Z,101649.42
2018-02-17T09:49:52.106Z,101653.55
2018-02-17T09:52:18.041Z,101643.08
2018-02-17T09:54:43.987Z,101639.44
2018-02-17T09:57:09.967Z,101640.90
2018-02-17T09:59:35.958Z,101639.27
2018-02-17T10:02:01.917Z,101636.29
2018-02-17T10:04:27.895Z,101636.19
2018-02-17T10:06:53.850Z,101634.93
2018-02-17T10:09:19.799Z,101639.41
2018-02-17T10:11:45.788Z,101641.94
2018-02-17T10:14:11.734Z,101651.20
2018-02-17T10:16:37.707Z,101654.94
2018-02-17T10:19:03.651Z,101647.34
2018-02-17T10:21:29.618Z,101645.41
2018-02-17T10:23:55.584Z,101641.39
2018-02-17T10:26:21.544Z,101649.53
2018-02-17T10:28:47.517Z,101654.45
2018-02-17T10:31:13.470Z,101654.22
2018-02-17T10:33:39.440Z,101658.52
2018-02-17T10:36:05.401Z,101663.86
2018-02-17T10:38:31.351Z,101663.02
2018-02-17T10:40:57.330Z,101665.10
2018-02-17T10:43:23.270Z,101664.34
2018-02-17T10:45:49.226Z,101665.91
2018-02-17T10:48:15.194Z,101665.41
2018-02-17T10:50:41.141Z,101669.06
2018-02-17T10:53:07.107Z,101672.98
2018-02-17T10:55:33.057Z,101668.95
2018-02-17T10:57:59.011Z,101673.22
2018-02-17T11:00:24.999Z,101669.12
2018-02-17T11:02:50.952Z,101658.69
2018-02-17T11:05:16.895Z,101654.28
2018-02-17T11:07:42.858Z,101649.91
2018-02-17T11:10:08.797Z,101644.40
2018-02-17T11:12:34.764Z,101640.62
2018-02-17T11:15:00.742Z,101642.84
2018-02-17T11:17:26.703Z,101653.14
2018-02-17T11:19:52.667Z,101650.92
2018-02-17T11:22:18.650Z,101649.95
2018-02-17T11:24:44.631Z,101642.53
2018-02-17T11:27:10.582Z,101652.48
2018-02-17T11:29:36.540Z,101654.34
2018-02-17T11:32:02.512Z,101646.38
2018-02-17T11:34:28.461Z,101647.80
2018-02-17T11:36:54.558Z,101652.72
2018-02-17T11:39:20.509Z,101643.98
2018-02-17T11:41:46.457Z,101647.45
2018-02-17T11:44:12.415Z,101648.59
2018-02-17T11:46:38.361Z,101649.36
2018-02-17T11:49:04.313Z,101648.24
2018-02-17T11:51:30.270Z,101644.16
2018-02-17T11:53:56.226Z,101644.12
2018-02-17T11:56:22.202Z,101643.60
2018-02-17T11:58:48.136Z,101653.52
2018-02-17T12:01:14.094Z,101649.49
2018-02-17T12:03:40.062Z,101648.63
2018-02-17T12:06:06.043Z,101642.25
2018-02-17T12:08:31.993Z,101646.68
2018-02-17T12:10:57.965Z,101653.97
2018-02-17T12:13:23.916Z,101654.98
2018-02-17T12:15:49.905Z,101657.44
2018-02-17T12:18:15.850Z,101657.92
2018-02-17T12:20:41.794Z,101666.45
2018-02-17T12:23:07.783Z,101662.02
2018-02-17T12:25:33.735Z,101666.08
2018-02-17T12:27:59.809Z,101663.20
2018-02-17T12:30:25.755Z,101656.08
2018-02-17T12:32:51.698Z,101656.08
2018-02-17T12:35:17.670Z,101658.52
2018-02-17T12:37:43.615Z,101658.54
2018-02-17T12:40:09.565Z,101651.70
2018-02-17T12:42:35.501Z,101655.59
2018-02-17T12:45:01.464Z,101654.45
2018-02-17T12:47:27.398Z,101666.21
2018-02-17T12:49:53.432Z,101662.25
2018-02-17T12:52:19.346Z,101666.30
2018-02-17T12:54:45.277Z,101666.66
2018-02-17T12:57:11.245Z,101668.31
2018-02-17T12:59:37.191Z,101673.34
2018-02-17T13:02:03.190Z,101666.45
2018-02-17T13:04:29.127Z,101679.06
2018-02-17T13:06:55.070Z,101671.95
2018-02-17T13:09:21.094Z,101668.02
2018-02-17T13:11:48.086Z,101658.84
2018-02-17T13:14:14.047Z,101661.00
2018-02-17T13:16:40.005Z,101659.68
2018-02-17T13:19:06.113Z,101666.41
2018-02-17T13:21:32.144Z,101662.39
2018-02-17T13:23:58.114Z,101665.86
2018-02-17T13:26:24.058Z,101661.73
2018-02-17T13:28:50.057Z,101659.30
2018-02-17T13:31:16.002Z,101657.64
2018-02-17T13:33:41.962Z,101659.70
2018-02-17T13:36:07.910Z,101665.61
2018-02-17T13:38:33.875Z,101661.83
2018-02-17T13:40:59.838Z,101661.31
2018-02-17T13:43:25.799Z,101659.79
2018-02-17T13:45:51.787Z,101665.70
2018-02-17T13:48:17.725Z,101658.23
2018-02-17T13:50:43.740Z,101658.19
2018-02-17T13:53:09.690Z,101661.06
2018-02-17T13:55:35.658Z,101660.28
2018-02-17T13:58:01.598Z,101662.67
2018-02-17T14:00:27.588Z,101658.30
2018-02-17T14:02:53.530Z,101657.89
2018-02-17T14:05:19.488Z,101663.20
2018-02-17T14:07:45.436Z,101662.78
2018-02-17T14:10:11.382Z,101663.51
2018-02-17T14:12:37.329Z,101663.99
2018-02-17T14:15:03.336Z,101659.63
2018-02-17T14:17:29.290Z,101658.03
2018-02-17T14:19:55.226Z,101659.42
2018-02-17T14:22:21.190Z,101663.68
2018-02-17T14:24:47.146Z,101663.20
2018-02-17T14:27:13.095Z,101663.20
2018-02-17T14:29:39.093Z,101664.76
2018-02-17T14:32:05.059Z,101667.33
2018-02-17T14:34:31.012Z,101667.81
2018-02-17T14:36:56.983Z,101670.06
2018-02-17T14:39:22.973Z,101667.84
2018-02-17T14:41:48.924Z,101670.20
2018-02-17T14:44:14.880Z,101672.35
2018-02-17T14:46:40.854Z,101668.50
2018-02-17T14:49:06.799Z,101670.30
2018-02-17T14:51:32.770Z,101668.57
2018-02-17T14:53:58.758Z,101672.28
2018-02-17T14:56:24.715Z,101674.78
2018-02-17T14:58:50.673Z,101675.44
2018-02-17T15:01:16.665Z,101676.96
2018-02-17T15:03:42.608Z,101680.36
2018-02-17T15:06:08.659Z,101677.17
2018-02-17T15:08:34.601Z,101679.28
2018-02-17T15:11:00.542Z,101676.75
2018-02-17T15:13:26.485Z,101683.13
2018-02-17T15:15:52.426Z,101690.48
2018-02-17T15:18:18.396Z,101683.41
2018-02-17T15:20:44.358Z,101683.16
2018-02-17T15:23:10.322Z,101688.12
2018-02-17T15:25:36.261Z,101683.47
2018-02-17T15:28:02.227Z,101687.61
2018-02-17T15:30:28.197Z,101687.41
2018-02-17T15:32:54.158Z,101686.78
2018-02-17T15:35:20.148Z,101688.48
2018-02-17T15:37:46.082Z,101689.23
2018-02-17T15:40:12.030Z,101689.59
2018-02-17T15:42:37.974Z,101684.87
2018-02-17T15:45:03.954Z,101690.45
2018-02-17T15:47:29.923Z,101692.02
2018-02-17T15:49:55.955Z,101690.73
2018-02-17T15:52:21.898Z,101690.80
2018-02-17T15:54:47.894Z,101696.45
2018-02-17T15:57:13.846Z,101697.80
2018-02-17T15:59:39.793Z,101706.09
2018-02-17T16:02:05.770Z,101718.13
2018-02-17T16:04:31.727Z,101710.05
2018-02-17T16:06:57.686Z,101711.41
2018-02-17T16:09:23.648Z,101712.83
2018-02-17T16:11:49.618Z,101716.95
2018-02-17T16:14:15.782Z,101721.02
2018-02-17T16:16:41.769Z,101724.20
2018-02-17T16:19:07.732Z,101725.91
2018-02-17T16:21:33.678Z,101722.19
2018-02-17T16:23:59.636Z,101732.36
2018-02-17T16:26:25.577Z,101735.23
2018-02-17T16:28:51.534Z,101731.22
2018-02-17T16:31:17.474Z,101737.25
2018-02-17T16:33:43.445Z,101733.67
2018-02-17T16:36:09.430Z,101742.77
2018-02-17T16:38:35.413Z,101745.78
2018-02-17T16:41:01.420Z,101745.13
2018-02-17T16:43:27.362Z,101744.22
2018-02-17T16:45:53.330Z,101742.06
2018-02-17T16:48:19.291Z,101745.47
2018-02-17T16:50:45.268Z,101748.01
2018-02-17T16:53:11.203Z,101751.96
2018-02-17T16:55:37.163Z,101748.00
2018-02-17T16:58:03.162Z,101751.95
2018-02-17T17:00:29.097Z,101755.25
2018-02-17T17:02:55.055Z,101754.35
2018-02-17T17:05:21.006Z,101757.33
2018-02-17T17:07:46.993Z,101762.02
2018-02-17T17:10:12.946Z,101766.70
2018-02-17T17:12:38.886Z,101768.69
2018-02-17T17:15:04.846Z,101773.78
2018-02-17T17:17:30.802Z,101782.59
2018-02-17T17:19:56.743Z,101797.61
2018-02-17T17:22:22.689Z,101803.20
2018-02-17T17:24:48.649Z,101805.60
2018-02-17T17:27:14.603Z,101808.58
2018-02-17T17:29:40.577Z,101809.22
2018-02-17T17:32:06.549Z,101815.63
2018-02-17T17:34:32.495Z,101817.30
2018-02-17T17:36:58.462Z,101816.89
2018-02-17T17:39:24.427Z,101818.86
2018-02-17T17:41:50.385Z,101826.28
2018-02-17T17:44:16.352Z,101829.92
2018-02-17T17:46:42.306Z,101838.89
2018-02-17T17:49:08.246Z,101843.89
2018-02-17T17:51:34.191Z,101845.33
2018-02-17T17:54:00.144Z,101855.11
2018-02-17T17:56:26.140Z,101853.22
2018-02-17T17:58:52.099Z,101852.05
2018-02-17T18:01:18.046Z,101849.11
2018-02-17T18:03:44.002Z,101855.25
2018-02-17T18:06:10.000Z,101860.89
2018-02-17T18:08:35.959Z,101865.27
2018-02-17T18:11:01.936Z,101863.27
2018-02-17T18:13:27.907Z,101866.17
2018-02-17T18:15:53.860Z,101865.48
2018-02-17T18:18:19.822Z,101866.55
2018-02-17T18:20:45.775Z,101868.36
2018-02-17T18:23:11.763Z,101874.40
2018-02-17T18:25:37.702Z,101877.78
2018-02-17T18:28:03.658Z,101875.06
2018-02-17T18:30:29.706Z,101884.42
2018-02-17T18:32:55.671Z,101878.92
2018-02-17T18:35:21.620Z,101890.84
2018-02-17T18:37:47.563Z,101887.52
2018-02-17T18:40:13.516Z,101890.78
2018-02-17T18:42:39.466Z,101889.30
2018-02-17T18:45:05.410Z,101887.41
2018-02-17T18:47:31.399Z,101888.96
2018-02-17T18:49:57.368Z,101885.24
2018-02-17T18:52:23.317Z,101888.05
2018-02-17T18:54:49.254Z,101888.66
2018-02-17T18:57:15.214Z,101894.64
2018-02-17T18:59:41.171Z,101894.30
2018-02-17T19:02:07.182Z,101893.39
2018-02-17T19:04:33.146Z,101896.70
2018-02-17T19:06:59.110Z,101893.68
2018-02-17T19:09:25.062Z,101900.48
2018-02-17T19:11:51.019Z,101902.05
2018-02-17T19:14:16.967Z,101904.28
2018-02-17T19:16:43.971Z,101902.64
2018-02-17T19:19:09.924Z,101903.80
2018-02-17T19:21:35.879Z,101902.13
2018-02-17T19:24:01.819Z,101896.56
2018-02-17T19:26:27.868Z,101898.59
2018-02-17T19:28:53.831Z,101900.75
2018-02-17T19:31:19.790Z,101901.17
2018-02-17T19:33:45.852Z,101901.08
2018-02-17T19:36:11.807Z,101896.23
2018-02-17T19:38:37.783Z,101901.31
2018-02-17T19:41:03.856Z,101901.75
2018-02-17T19:43:29.877Z,101906.28
2018-02-17T19:45:55.811Z,101907.90
2018-02-17T19:48:21.782Z,101903.24
2018-02-17T19:50:47.747Z,101904.56
2018-02-17T19:53:13.744Z,101902.54
2018-02-17T19:55:39.706Z,101903.95
2018-02-17T19:58:05.734Z,101906.95
2018-02-17T20:00:31.683Z,101910.38
2018-02-17T20:02:57.625Z,101909.33
2018-02-17T20:05:23.582Z,101917.31
2018-02-17T20:07:49.555Z,101919.20
2018-02-17T20:10:15.544Z,101925.37
2018-02-17T20:12:41.505Z,101930.97
2018-02-17T20:15:07.496Z,101928.83
2018-02-17T20:17:33.468Z,101935.00
2018-02-17T20:19:59.431Z,101929.44
2018-02-17T20:22:25.374Z,101930.95
2018-02-17T20:24:51.383Z,101935.89
2018-02-17T20:27:17.352Z,101934.59
2018-02-17T20:29:43.319Z,101943.31
2018-02-17T20:32:09.421Z,101944.02
2018-02-17T20:34:35.382Z,101947.01
2018-02-17T20:37:01.371Z,101942.02
2018-02-17T20:39:27.417Z,101956.09
2018-02-17T20:41:53.371Z,101956.94
2018-02-17T20:44:19.326Z,101958.64
2018-02-17T20:46:45.275Z,101965.62
2018-02-17T20:49:11.237Z,101970.63
2018-02-17T20:51:37.192Z,101971.05
2018-02-17T20:54:03.385Z,101977.90
2018-02-17T20:56:29.415Z,101983.48
2018-02-17T20:58:55.390Z,101983.48
2018-02-17T21:01:21.347Z,101989.83
2018-02-17T21:03:47.291Z,101990.08
2018-02-17T21:06:13.226Z,101986.70
2018-02-17T21:08:39.181Z,101982.27
2018-02-17T21:11:05.158Z,101983.66
2018-02-17T21:13:31.134Z,101983.46
2018-02-17T21:15:57.086Z,101988.98
2018-02-17T21:18:23.038Z,101986.87
2018-02-17T21:20:49.101Z,101988.22
2018-02-17T21:23:15.102Z,101996.61
2018-02-17T21:25:41.056Z,101997.34
2018-02-17T21:28:06.993Z,102000.50
2018-02-17T21:30:32.954Z,102004.35
2018-02-17T21:32:58.907Z,102010.20
2018-02-17T21:35:24.874Z,102015.38
2018-02-17T21:37:50.823Z,102022.31
2018-02-17T21:40:16.852Z,102023.13
2018-02-17T21:42:42.808Z,102019.01
2018-02-17T21:45:08.874Z,102025.91
2018-02-17T21:47:34.854Z,102033.41
2018-02-17T21:50:00.841Z,102034.72
2018-02-17T21:52:26.807Z,102035.27
2018-02-17T21:54:52.767Z,102037.52
2018-02-17T21:57:18.715Z,102034.88
2018-02-17T21:59:44.730Z,102037.73
2018-02-17T22:02:10.693Z,102033.14
2018-02-17T22:04:36.661Z,102045.26
2018-02-17T22:07:02.644Z,102044.39
2018-02-17T22:09:28.585Z,102044.10
2018-02-17T22:11:54.520Z,102044.74
2018-02-17T22:14:20.515Z,102047.21
2018-02-17T22:16:46.429Z,102051.59
2018-02-17T22:19:12.386Z,102058.95
2018-02-17T22:21:38.338Z,102056.13
2018-02-17T22:24:04.282Z,102055.22
2018-02-17T22:26:30.235Z,102056.29
2018-02-17T22:28:56.207Z,102058.22
2018-02-17T22:31:22.166Z,102064.61
2018-02-17T22:33:48.117Z,102059.02
2018-02-17T22:36:14.073Z,102052.75
2018-02-17T22:38:40.038Z,102056.86
2018-02-17T22:41:05.982Z,102052.91
2018-02-17T22:43:31.953Z,102056.38
2018-02-17T22:45:57.908Z,102058.98
2018-02-17T22:48:23.847Z,102059.23
2018-02-17T22:50:49.797Z,102062.41
2018-02-17T22:53:15.748Z,102065.14
2018-02-17T22:55:41.710Z,102063.02
2018-02-17T22:58:07.661Z,102066.11
2018-02-17T23:00:33.614Z,102065.72
2018-02-17T23:02:59.595Z,102062.02
2018-02-17T23:05:25.554Z,102070.19
2018-02-17T23:07:51.524Z,102068.16
2018-02-17T23:10:17.470Z,102070.05
2018-02-17T23:12:43.433Z,102068.45
2018-02-17T23:15:09.377Z,102071.69
2018-02-17T23:17:35.334Z,102069.47
2018-02-17T23:20:01.378Z,102073.03
2018-02-17T23:22:27.330Z,102077.69
2018-02-17T23:24:53.272Z,102078.72
2018-02-17T23:27:19.252Z,102077.25
2018-02-17T23:29:45.227Z,102074.88
2018-02-17T23:32:11.175Z,102074.98
2018-02-17T23:34:37.209Z,102070.84
2018-02-17T23:37:03.175Z,102073.05
2018-02-17T23:39:29.202Z,102074.25
2018-02-17T23:41:55.131Z,102072.76
2018-02-17T23:44:21.111Z,102069.39
2018-02-17T23:46:47.058Z,102073.83
2018-02-17T23:49:13.020Z,102071.89
2018-02-17T23:51:38.994Z,102067.26
2018-02-17T23:54:04.955Z,102072.57
2018-02-17T23:56:30.910Z,102075.98
2018-02-17T23:58:56.894Z,102070.42
